createdAt,value
2022-08-26T00:01:42.206Z,63.23
2022-08-26T00:07:05.321Z,63.44
2022-08-26T00:09:33.273Z,63.83
2022-08-26T00:12:06.213Z,63.25
2022-08-26T00:14:33.229Z,62.58
2022-08-26T00:16:59.821Z,62.95
2022-08-26T00:19:26.340Z,63.26
2022-08-26T00:21:52.737Z,63.73
2022-08-26T00:24:20.772Z,64.09
2022-08-26T00:26:48.728Z,64.58
2022-08-26T00:29:15.852Z,64.22
2022-08-26T00:31:42.813Z,64.38
2022-08-26T00:34:12.312Z,65.63
2022-08-26T00:36:39.636Z,64.85
2022-08-26T00:39:07.417Z,65.52
2022-08-26T00:41:34.919Z,65.07
2022-08-26T00:44:01.421Z,65.71
2022-08-26T00:46:35.097Z,65.56
2022-08-26T00:49:11.912Z,65.47
2022-08-26T00:51:47.290Z,65.35
2022-08-26T00:54:16.347Z,64.89
2022-08-26T00:56:52.765Z,64.58
2022-08-26T00:59:20.259Z,64.89
2022-08-26T01:01:46.990Z,65.24
2022-08-26T01:04:18.312Z,65.31
2022-08-26T01:06:45.259Z,65.38
2022-08-26T01:09:12.135Z,65.56
2022-08-26T01:11:38.994Z,65.61
2022-08-26T01:14:07.380Z,65.22
2022-08-26T01:16:36.020Z,65.10
2022-08-26T01:19:15.730Z,66.05
2022-08-26T01:21:53.655Z,65.27
2022-08-26T01:24:20.243Z,65.92
2022-08-26T01:26:47.640Z,64.95
2022-08-26T01:29:19.056Z,64.98
2022-08-26T01:31:55.915Z,65.30
2022-08-26T01:34:35.948Z,66.49
2022-08-26T01:37:13.703Z,66.82
2022-08-26T01:39:43.822Z,66.74
2022-08-26T01:42:14.471Z,66.94
2022-08-26T01:45:06.302Z,67.19
2022-08-26T01:47:35.296Z,67.01
2022-08-26T01:50:07.796Z,67.19
2022-08-26T01:52:38.086Z,67.20
2022-08-26T01:55:05.392Z,67.63
2022-08-26T01:57:34.422Z,67.16
2022-08-26T02:00:06.314Z,66.97
2022-08-26T02:02:32.822Z,66.75
2022-08-26T02:05:05.812Z,67.78
2022-08-26T02:07:33.220Z,67.97
2022-08-26T02:09:59.839Z,66.88
2022-08-26T02:12:27.087Z,67.10
2022-08-26T02:14:58.216Z,68.24
2022-08-26T02:17:31.922Z,68.27
2022-08-26T02:19:58.572Z,67.38
2022-08-26T02:22:25.102Z,67.67
2022-08-26T02:25:00.684Z,67.55
2022-08-26T02:27:32.931Z,68.59
2022-08-26T02:30:14.686Z,68.26
2022-08-26T02:32:44.349Z,68.92
2022-08-26T02:35:13.791Z,68.16
2022-08-26T02:37:46.676Z,67.77
2022-08-26T02:40:18.267Z,68.12
2022-08-26T02:42:44.803Z,69.09
2022-08-26T02:45:11.175Z,68.62
2022-08-26T02:47:37.598Z,68.89
2022-08-26T02:50:05.039Z,69.11
2022-08-26T02:52:31.626Z,68.73
2022-08-26T02:54:58.938Z,68.89
2022-08-26T02:57:25.984Z,69.08
2022-08-26T02:59:52.579Z,69.55
2022-08-26T03:02:19.097Z,69.51
2022-08-26T03:04:57.490Z,69.82
2022-08-26T03:07:27.219Z,69.53
2022-08-26T03:09:53.659Z,69.95
2022-08-26T03:12:20.304Z,70.11
2022-08-26T03:14:47.558Z,70.31
2022-08-26T03:17:13.961Z,70.80
2022-08-26T03:19:40.319Z,71.22
2022-08-26T03:22:07.810Z,71.28
2022-08-26T03:24:34.864Z,71.10
2022-08-26T03:27:01.906Z,71.13
2022-08-26T03:29:52.926Z,71.35
2022-08-26T03:32:20.602Z,71.44
2022-08-26T03:34:47.006Z,71.21
2022-08-26T03:37:13.430Z,72.28
2022-08-26T03:39:39.811Z,72.43
2022-08-26T03:42:07.216Z,71.70
2022-08-26T03:44:34.025Z,71.59
2022-08-26T03:47:00.642Z,72.42
2022-08-26T03:49:28.964Z,71.58
2022-08-26T03:51:55.473Z,71.41
2022-08-26T03:54:21.802Z,71.82
2022-08-26T03:56:48.205Z,71.92
2022-08-26T03:59:14.571Z,72.01
2022-08-26T04:01:41.170Z,71.74
2022-08-26T04:04:07.696Z,71.25
2022-08-26T04:06:38.157Z,71.48
2022-08-26T04:09:10.565Z,70.46
2022-08-26T04:11:39.475Z,70.03
2022-08-26T04:14:09.545Z,70.35
2022-08-26T04:16:36.619Z,70.64
2022-08-26T04:19:03.431Z,71.24
2022-08-26T04:21:29.893Z,71.03
2022-08-26T04:23:56.309Z,70.65
2022-08-26T04:26:25.466Z,70.52
2022-08-26T04:28:54.594Z,71.01
2022-08-26T04:31:21.151Z,71.61
2022-08-26T04:33:51.833Z,72.07
2022-08-26T04:36:20.166Z,72.71
2022-08-26T04:38:47.432Z,73.65
2022-08-26T04:41:14.847Z,73.98
2022-08-26T04:43:44.520Z,74.63
2022-08-26T04:46:12.870Z,75.16
2022-08-26T04:48:40.898Z,75.43
2022-08-26T04:51:07.823Z,76.08
2022-08-26T04:53:34.731Z,75.67
2022-08-26T04:56:01.214Z,75.53
2022-08-26T04:58:30.890Z,75.66
2022-08-26T05:00:58.430Z,75.61
2022-08-26T05:03:30.295Z,75.19
2022-08-26T05:05:58.164Z,75.34
2022-08-26T05:08:25.145Z,75.64
2022-08-26T05:10:57.005Z,75.82
2022-08-26T05:13:26.406Z,75.90
2022-08-26T05:15:53.596Z,75.70
2022-08-26T05:18:22.923Z,75.60
2022-08-26T05:20:54.751Z,75.79
2022-08-26T05:23:22.866Z,75.84
2022-08-26T05:25:53.599Z,76.13
2022-08-26T05:28:22.436Z,75.19
2022-08-26T05:30:50.020Z,75.28
2022-08-26T05:33:18.893Z,75.48
2022-08-26T05:35:46.815Z,74.59
2022-08-26T05:38:16.495Z,74.49
2022-08-26T05:40:46.065Z,74.58
2022-08-26T05:43:13.352Z,74.50
2022-08-26T05:45:46.295Z,74.64
2022-08-26T05:48:14.424Z,74.39
2022-08-26T05:50:44.702Z,74.26
2022-08-26T05:53:13.115Z,74.63
2022-08-26T05:55:45.579Z,75.83
2022-08-26T05:58:12.359Z,74.36
2022-08-26T06:00:39.720Z,73.73
2022-08-26T06:03:10.999Z,73.47
2022-08-26T06:05:41.828Z,73.60
2022-08-26T06:08:11.300Z,73.08
2022-08-26T06:10:52.491Z,72.76
2022-08-26T06:13:24.062Z,72.22
2022-08-26T06:15:51.492Z,72.76
2022-08-26T06:18:23.980Z,71.66
2022-08-26T06:20:57.021Z,70.50
2022-08-26T06:23:45.154Z,70.40
2022-08-26T06:26:12.480Z,70.17
2022-08-26T06:28:38.928Z,69.96
2022-08-26T06:31:05.983Z,70.48
2022-08-26T06:33:32.556Z,68.53
2022-08-26T06:36:00.971Z,68.53
2022-08-26T06:38:28.440Z,68.83
2022-08-26T06:40:54.928Z,69.03
2022-08-26T06:43:24.283Z,68.75
2022-08-26T06:45:51.295Z,68.14
2022-08-26T06:48:21.429Z,67.52
2022-08-26T06:50:47.877Z,66.82
2022-08-26T06:53:16.934Z,65.88
2022-08-26T06:55:46.036Z,65.04
2022-08-26T06:58:14.104Z,65.87
2022-08-26T07:00:41.623Z,66.12
2022-08-26T07:03:13.886Z,65.71
2022-08-26T07:05:40.859Z,65.67
2022-08-26T07:08:07.425Z,65.14
2022-08-26T07:10:35.532Z,63.76
2022-08-26T07:13:02.528Z,64.54
2022-08-26T07:15:31.483Z,64.08
2022-08-26T07:17:58.000Z,64.11
2022-08-26T07:20:24.376Z,63.74
2022-08-26T07:22:51.371Z,63.10
2022-08-26T07:25:17.928Z,62.94
2022-08-26T07:27:46.156Z,62.25
2022-08-26T07:30:20.337Z,62.88
2022-08-26T07:32:46.727Z,62.88
2022-08-26T07:35:13.997Z,61.96
2022-08-26T07:37:40.534Z,62.15
2022-08-26T07:40:08.308Z,62.16
2022-08-26T07:42:35.858Z,60.75
2022-08-26T07:45:02.177Z,61.12
2022-08-26T07:47:28.531Z,59.82
2022-08-26T07:49:57.274Z,58.93
2022-08-26T07:52:27.367Z,61.22
2022-08-26T07:54:58.046Z,59.48
2022-08-26T07:57:26.178Z,60.04
2022-08-26T07:59:55.126Z,58.90
2022-08-26T08:02:22.659Z,59.45
2022-08-26T08:04:49.059Z,60.11
2022-08-26T08:07:15.525Z,58.96
2022-08-26T08:09:41.947Z,57.87
2022-08-26T08:12:09.351Z,58.07
2022-08-26T08:14:40.696Z,57.18
2022-08-26T08:17:08.551Z,56.34
2022-08-26T08:19:39.045Z,56.58
2022-08-26T08:22:06.885Z,57.42
2022-08-26T08:24:44.515Z,57.14
2022-08-26T08:27:10.865Z,56.92
2022-08-26T08:29:37.870Z,55.57
2022-08-26T08:32:04.925Z,55.38
2022-08-26T08:34:31.588Z,54.31
2022-08-26T08:36:58.421Z,53.10
2022-08-26T08:39:25.475Z,53.20
2022-08-26T08:42:13.881Z,54.24
2022-08-26T08:44:44.425Z,54.33
2022-08-26T08:47:37.645Z,54.09
2022-08-26T08:50:17.411Z,54.84
2022-08-26T08:52:50.605Z,56.80
2022-08-26T08:55:18.204Z,54.91
2022-08-26T08:58:02.185Z,54.12
2022-08-26T09:00:41.657Z,57.27
2022-08-26T09:03:32.155Z,56.36
2022-08-26T09:06:01.849Z,56.60
2022-08-26T09:08:35.025Z,56.57
2022-08-26T09:11:03.440Z,57.81
2022-08-26T09:13:31.740Z,57.30
2022-08-26T09:16:10.307Z,57.11
2022-08-26T09:19:24.533Z,57.64
2022-08-26T09:22:02.154Z,57.71
2022-08-26T09:24:39.625Z,59.07
2022-08-26T09:27:08.731Z,58.90
2022-08-26T09:29:45.325Z,59.92
2022-08-26T09:32:23.949Z,58.92
2022-08-26T09:35:00.922Z,58.90
2022-08-26T09:37:43.521Z,59.41
2022-08-26T09:40:34.945Z,60.62
2022-08-26T09:43:07.729Z,61.49
2022-08-26T09:45:35.726Z,60.01
2022-08-26T09:48:03.426Z,60.41
2022-08-26T09:50:54.767Z,61.12
2022-08-26T09:53:28.580Z,61.00
2022-08-26T09:56:23.174Z,60.16
2022-08-26T09:58:49.954Z,60.42
2022-08-26T10:01:30.089Z,60.63
2022-08-26T10:04:09.679Z,60.67
2022-08-26T10:06:42.105Z,61.59
2022-08-26T10:09:13.726Z,61.57
2022-08-26T10:11:49.458Z,62.80
2022-08-26T10:14:20.228Z,61.45
2022-08-26T10:17:00.330Z,62.37
2022-08-26T10:19:56.229Z,62.18
2022-08-26T10:22:30.276Z,64.96
2022-08-26T10:25:02.745Z,66.10
2022-08-26T10:27:49.705Z,66.19
2022-08-26T10:30:22.779Z,65.18
2022-08-26T10:32:54.599Z,66.16
2022-08-26T10:35:21.456Z,64.24
2022-08-26T10:37:53.420Z,64.60
2022-08-26T10:40:23.527Z,63.56
2022-08-26T10:42:58.391Z,63.92
2022-08-26T10:45:31.370Z,66.03
2022-08-26T10:48:06.777Z,64.30
2022-08-26T10:50:37.422Z,66.56
2022-08-26T10:53:17.712Z,66.24
2022-08-26T10:55:53.304Z,66.23
2022-08-26T10:59:00.283Z,63.81
2022-08-26T11:01:43.184Z,63.85
2022-08-26T11:04:35.081Z,62.36
2022-08-26T11:07:31.935Z,60.41
2022-08-26T11:10:05.015Z,59.63
2022-08-26T11:12:34.454Z,58.76
2022-08-26T11:15:07.112Z,58.59
2022-08-26T11:17:44.412Z,57.50
2022-08-26T11:20:23.739Z,57.99
2022-08-26T11:22:53.274Z,57.24
2022-08-26T11:25:26.455Z,56.44
2022-08-26T11:27:59.686Z,56.59
2022-08-26T11:30:36.935Z,57.00
2022-08-26T11:33:03.451Z,56.74
2022-08-26T11:35:37.453Z,55.69
2022-08-26T11:38:20.172Z,57.26
2022-08-26T11:40:56.320Z,56.56
2022-08-26T11:43:30.274Z,55.89
2022-08-26T11:46:05.209Z,55.01
2022-08-26T11:48:34.726Z,55.20
2022-08-26T11:51:07.668Z,54.47
2022-08-26T11:53:40.928Z,53.93
2022-08-26T11:56:31.595Z,53.32
2022-08-26T11:59:00.496Z,53.08
2022-08-26T12:01:32.176Z,52.86
2022-08-26T12:04:00.167Z,52.98
2022-08-26T12:06:43.443Z,52.56
2022-08-26T12:09:21.923Z,50.05
2022-08-26T12:11:48.342Z,49.67
2022-08-26T12:14:19.798Z,49.56
2022-08-26T12:16:46.452Z,48.20
2022-08-26T12:19:33.001Z,47.10
2022-08-26T12:22:23.423Z,45.93
2022-08-26T12:25:00.563Z,44.40
2022-08-26T12:27:28.785Z,43.23
2022-08-26T12:30:12.253Z,43.37
2022-08-26T12:32:50.981Z,42.30
2022-08-26T12:35:26.055Z,41.42
2022-08-26T12:37:54.485Z,40.52
2022-08-26T12:40:41.531Z,40.13
2022-08-26T12:43:08.927Z,39.49
2022-08-26T12:45:43.062Z,39.11
2022-08-26T12:48:26.793Z,40.60
2022-08-26T12:50:53.306Z,40.20
2022-08-26T12:53:31.716Z,39.60
2022-08-26T12:56:04.531Z,41.13
2022-08-26T12:58:31.528Z,40.42
2022-08-26T13:01:22.461Z,39.67
2022-08-26T13:03:49.862Z,40.04
2022-08-26T13:06:29.644Z,39.98
2022-08-26T13:09:01.088Z,39.26
2022-08-26T13:11:41.088Z,38.96
2022-08-26T13:14:10.772Z,40.35
2022-08-26T13:16:38.603Z,39.77
2022-08-26T13:19:10.349Z,38.35
2022-08-26T13:21:52.825Z,40.06
2022-08-26T13:24:39.989Z,41.58
2022-08-26T13:27:09.346Z,43.30
2022-08-26T13:29:36.187Z,43.95
2022-08-26T13:32:04.624Z,45.08
2022-08-26T13:34:32.319Z,44.53
2022-08-26T13:36:59.117Z,44.16
2022-08-26T13:39:26.416Z,47.40
2022-08-26T13:41:53.092Z,48.18
2022-08-26T13:44:19.759Z,47.73
2022-08-26T13:46:46.363Z,47.52
2022-08-26T13:49:12.820Z,46.21
2022-08-26T13:51:39.487Z,45.44
2022-08-26T13:54:06.156Z,44.48
2022-08-26T13:56:34.009Z,46.41
2022-08-26T13:59:01.275Z,47.35
2022-08-26T14:01:29.482Z,47.96
2022-08-26T14:03:56.030Z,48.13
2022-08-26T14:06:22.500Z,48.26
2022-08-26T14:08:49.350Z,47.89
2022-08-26T14:11:16.165Z,48.03
2022-08-26T14:13:42.934Z,46.58
2022-08-26T14:16:16.079Z,47.88
2022-08-26T14:18:45.289Z,48.41
2022-08-26T14:21:15.059Z,49.05
2022-08-26T14:23:41.810Z,49.45
2022-08-26T14:26:10.801Z,49.81
2022-08-26T14:28:41.656Z,49.96
2022-08-26T14:31:08.646Z,49.91
2022-08-26T14:33:38.109Z,50.63
2022-08-26T14:36:25.366Z,50.07
2022-08-26T14:38:52.489Z,49.76
2022-08-26T14:41:19.800Z,49.30
2022-08-26T14:43:57.724Z,49.12
2022-08-26T14:46:26.707Z,48.73
2022-08-26T14:48:53.106Z,48.71
2022-08-26T14:51:23.872Z,48.43
2022-08-26T14:54:09.703Z,47.98
2022-08-26T14:56:42.855Z,48.21
2022-08-26T14:59:10.236Z,48.59
2022-08-26T15:01:36.884Z,48.72
2022-08-26T15:04:03.592Z,48.32
2022-08-26T15:06:31.754Z,48.98
2022-08-26T15:08:58.878Z,50.22
2022-08-26T15:11:25.442Z,50.46
2022-08-26T15:13:52.858Z,50.48
2022-08-26T15:16:19.553Z,50.21
2022-08-26T15:18:46.001Z,50.12
2022-08-26T15:21:12.505Z,50.73
2022-08-26T15:23:39.396Z,50.28
2022-08-26T15:26:11.177Z,50.43
2022-08-26T15:28:38.448Z,50.13
2022-08-26T15:31:06.500Z,51.21
2022-08-26T15:33:34.091Z,51.90
2022-08-26T15:36:02.099Z,51.83
2022-08-26T15:38:30.964Z,51.22
2022-08-26T15:41:02.920Z,51.33
2022-08-26T15:43:30.509Z,52.13
2022-08-26T15:45:58.990Z,52.08
2022-08-26T15:48:26.313Z,51.94
2022-08-26T15:50:54.720Z,52.45
2022-08-26T15:53:22.424Z,53.35
2022-08-26T15:55:50.270Z,53.35
2022-08-26T15:58:17.216Z,53.78
2022-08-26T16:00:44.980Z,54.61
2022-08-26T16:03:12.103Z,54.92
2022-08-26T16:05:41.168Z,55.45
2022-08-26T16:08:08.216Z,55.79
2022-08-26T16:10:37.402Z,55.40
2022-08-26T16:13:05.011Z,55.84
2022-08-26T16:15:33.483Z,55.55
2022-08-26T16:18:02.155Z,55.59
2022-08-26T16:20:30.209Z,55.58
2022-08-26T16:22:56.970Z,55.75
2022-08-26T16:25:23.811Z,55.69
2022-08-26T16:27:52.097Z,56.31
2022-08-26T16:30:20.864Z,56.08
2022-08-26T16:32:48.787Z,55.91
2022-08-26T16:35:16.690Z,56.27
2022-08-26T16:37:43.422Z,56.75
2022-08-26T16:40:10.823Z,56.89
2022-08-26T16:42:38.093Z,57.09
2022-08-26T16:45:06.258Z,56.87
2022-08-26T16:47:36.786Z,56.80
2022-08-26T16:50:06.497Z,57.04
2022-08-26T16:52:32.985Z,57.00
2022-08-26T16:54:59.528Z,57.20
2022-08-26T16:57:26.045Z,57.19
2022-08-26T16:59:52.858Z,57.69
2022-08-26T17:02:22.249Z,57.54
2022-08-26T17:04:50.658Z,57.76
2022-08-26T17:07:17.121Z,57.77
2022-08-26T17:09:43.496Z,58.11
2022-08-26T17:12:09.841Z,58.37
2022-08-26T17:14:36.208Z,58.44
2022-08-26T17:17:03.135Z,58.91
2022-08-26T17:19:29.552Z,59.05
2022-08-26T17:22:02.791Z,59.50
2022-08-26T17:24:33.639Z,59.49
2022-08-26T17:27:00.696Z,59.39
2022-08-26T17:29:27.388Z,60.02
2022-08-26T17:31:53.813Z,60.37
2022-08-26T17:34:21.324Z,60.25
2022-08-26T17:36:47.746Z,60.32
2022-08-26T17:39:14.187Z,60.75
2022-08-26T17:41:40.991Z,61.45
2022-08-26T17:44:07.634Z,61.81
2022-08-26T17:46:38.127Z,61.75
2022-08-26T17:49:05.515Z,62.45
2022-08-26T17:51:31.947Z,62.41
2022-08-26T17:53:58.296Z,62.35
2022-08-26T17:56:27.184Z,62.74
2022-08-26T17:58:55.541Z,62.54
2022-08-26T18:01:26.196Z,63.02
2022-08-26T18:03:57.852Z,63.17
2022-08-26T18:06:26.146Z,63.44
2022-08-26T18:08:52.622Z,64.09
2022-08-26T18:11:22.879Z,63.77
2022-08-26T18:13:49.262Z,63.70
2022-08-26T18:16:17.699Z,63.76
2022-08-26T18:18:44.797Z,64.31
2022-08-26T18:21:16.882Z,64.04
2022-08-26T18:23:44.653Z,64.13
2022-08-26T18:26:17.348Z,64.80
2022-08-26T18:28:43.779Z,64.36
2022-08-26T18:31:11.557Z,64.94
2022-08-26T18:33:38.799Z,64.76
2022-08-26T18:36:05.270Z,64.87
2022-08-26T18:38:31.711Z,65.54
2022-08-26T18:40:59.247Z,65.64
2022-08-26T18:43:25.619Z,66.00
2022-08-26T18:46:02.116Z,66.06
2022-08-26T18:48:28.498Z,66.18
2022-08-26T18:50:55.354Z,66.12
2022-08-26T18:53:21.813Z,66.20
2022-08-26T18:55:48.187Z,66.36
2022-08-26T18:58:16.275Z,66.13
2022-08-26T19:00:42.692Z,67.09
2022-08-26T19:03:18.472Z,66.40
2022-08-26T19:05:45.755Z,66.28
2022-08-26T19:08:12.295Z,66.98
2022-08-26T19:10:39.769Z,66.36
2022-08-26T19:13:09.192Z,67.02
2022-08-26T19:15:41.285Z,66.82
2022-08-26T19:18:09.066Z,67.34
2022-08-26T19:20:46.524Z,66.93
2022-08-26T19:23:30.987Z,67.25
2022-08-26T19:25:58.506Z,67.96
2022-08-26T19:28:24.839Z,67.63
2022-08-26T19:30:53.181Z,67.81
2022-08-26T19:33:19.956Z,68.56
2022-08-26T19:35:46.427Z,67.77
2022-08-26T19:38:13.471Z,67.92
2022-08-26T19:40:40.419Z,67.71
2022-08-26T19:43:07.280Z,68.84
2022-08-26T19:45:34.303Z,68.40
2022-08-26T19:48:00.982Z,68.66
2022-08-26T19:50:29.071Z,68.34
2022-08-26T19:52:55.503Z,68.68
2022-08-26T19:55:22.936Z,68.82
2022-08-26T19:57:52.187Z,69.08
2022-08-26T20:00:21.791Z,69.03
2022-08-26T20:02:48.611Z,68.61
2022-08-26T20:05:16.945Z,68.84
2022-08-26T20:07:43.720Z,69.05
2022-08-26T20:10:13.443Z,68.84
2022-08-26T20:12:41.629Z,69.25
2022-08-26T20:15:12.649Z,69.44
2022-08-26T20:17:40.306Z,69.14
2022-08-26T20:20:33.421Z,69.23
2022-08-26T20:23:02.328Z,69.21
2022-08-26T20:25:28.882Z,69.59
2022-08-26T20:27:55.251Z,69.66
2022-08-26T20:30:21.781Z,69.93
2022-08-26T20:32:48.359Z,70.26
2022-08-26T20:35:15.303Z,70.35
2022-08-26T20:37:41.681Z,70.74
2022-08-26T20:40:10.270Z,71.14
2022-08-26T20:42:37.543Z,70.96
2022-08-26T20:45:06.957Z,70.84
2022-08-26T20:47:33.906Z,71.11
2022-08-26T20:50:00.281Z,71.20
2022-08-26T20:52:26.681Z,70.75
2022-08-26T20:54:53.099Z,71.75
2022-08-26T20:57:19.488Z,71.39
2022-08-26T20:59:45.866Z,71.40
2022-08-26T21:02:12.335Z,71.60
2022-08-26T21:04:38.786Z,70.94
2022-08-26T21:07:05.157Z,71.50
2022-08-26T21:09:32.481Z,71.94
2022-08-26T21:11:59.084Z,71.81
2022-08-26T21:14:26.129Z,72.25
2022-08-26T21:16:53.119Z,72.36
2022-08-26T21:19:19.585Z,72.14
2022-08-26T21:21:48.107Z,72.14
2022-08-26T21:24:14.899Z,72.37
2022-08-26T21:26:41.680Z,73.50
2022-08-26T21:29:09.601Z,73.07
2022-08-26T21:31:40.018Z,72.76
2022-08-26T21:34:08.855Z,73.33
2022-08-26T21:36:35.232Z,72.92
2022-08-26T21:39:01.680Z,73.15
2022-08-26T21:41:28.610Z,73.67
2022-08-26T21:43:58.983Z,73.72
2022-08-26T21:46:28.288Z,73.93
2022-08-26T21:49:02.308Z,74.40
2022-08-26T21:51:34.134Z,74.51
2022-08-26T21:54:01.941Z,74.09
2022-08-26T21:56:31.446Z,74.23
2022-08-26T21:58:59.596Z,74.26
2022-08-26T22:01:29.362Z,73.98
2022-08-26T22:03:56.100Z,73.68
2022-08-26T22:06:24.135Z,73.27
2022-08-26T22:08:51.491Z,73.90
2022-08-26T22:11:18.956Z,74.72
2022-08-26T22:13:46.249Z,74.83
2022-08-26T22:16:13.777Z,75.27
2022-08-26T22:18:43.691Z,74.66
2022-08-26T22:21:13.459Z,75.07
2022-08-26T22:23:40.075Z,75.50
2022-08-26T22:26:08.579Z,74.94
2022-08-26T22:28:35.940Z,75.22
2022-08-26T22:31:02.393Z,75.28
2022-08-26T22:33:28.943Z,74.76
2022-08-26T22:35:55.614Z,74.80
2022-08-26T22:38:23.850Z,74.55
2022-08-26T22:40:56.412Z,74.78
2022-08-26T22:43:24.847Z,74.91
2022-08-26T22:45:52.786Z,75.18
2022-08-26T22:48:22.423Z,75.09
2022-08-26T22:50:49.677Z,75.00
2022-08-26T22:53:17.568Z,75.03
2022-08-26T22:55:44.620Z,75.13
2022-08-26T22:58:13.227Z,75.24
2022-08-26T23:00:40.820Z,75.40
2022-08-26T23:03:07.768Z,75.94
2022-08-26T23:05:34.584Z,75.66
2022-08-26T23:08:01.781Z,75.87
2022-08-26T23:10:28.228Z,75.87
2022-08-26T23:12:54.635Z,75.72
2022-08-26T23:15:21.230Z,76.01
2022-08-26T23:17:48.394Z,76.22
2022-08-26T23:20:26.211Z,75.84
2022-08-26T23:22:53.366Z,75.54
2022-08-26T23:25:20.304Z,75.71
2022-08-26T23:27:46.984Z,75.72
2022-08-26T23:30:18.033Z,75.38
2022-08-26T23:32:45.001Z,75.41
2022-08-26T23:35:12.756Z,75.49
2022-08-26T23:37:44.032Z,75.56
2022-08-26T23:40:32.479Z,75.47
2022-08-26T23:43:01.221Z,75.60
2022-08-26T23:45:27.828Z,75.88
2022-08-26T23:47:54.959Z,75.70
2022-08-26T23:50:23.719Z,76.13
2022-08-26T23:53:08.697Z,76.44
2022-08-26T23:55:39.012Z,76.84
2022-08-26T23:58:06.367Z,76.72
